Time;durP1;ratioP1;P1;durP2;ratioP2;P2;SDS_P1;SDS_P2;PMS_P1;PMS_P2;Temp;Humidity;BMP_temperature;BMP_pressure;BME280_temperature;BME280_humidity;BME280_pressure;Samples;Min_cycle;Max_cycle;Signal;HPM_P1;HPM_P2
2023/06/28 00:00:05;;;;;;;;;;;15.80;99.90;;;;;;5108780;27;20345;-75
2023/06/28 00:02:35;;;;;;;;;;;15.80;99.90;;;;;;5110801;27;19947;-74
2023/06/28 00:05:02;;;;;;;;;;;16.00;99.90;;;;;;5117749;27;19920;-74
2023/06/28 00:07:28;;;;;;;;;;;15.80;99.90;;;;;;5103734;27;19920;-75
2023/06/28 00:09:53;;;;;;;;;;;15.80;99.90;;;;;;5106490;27;20316;-75
2023/06/28 00:12:21;;;;;;;;;;;15.90;99.90;;;;;;5101779;28;19931;-73
2023/06/28 00:14:46;;;;;;;;;;;15.80;99.90;;;;;;5095146;28;20361;-74
2023/06/28 00:17:12;;;;;;;;;;;15.80;99.90;;;;;;5120330;27;19919;-75
2023/06/28 00:19:47;;;;;;;;;;;15.80;99.90;;;;;;5117610;27;20314;-75
2023/06/28 00:22:16;;;;;;;;;;;15.80;99.90;;;;;;5097410;28;19920;-74
2023/06/28 00:24:42;;;;;;;;;;;15.80;99.90;;;;;;5109993;27;19951;-74
2023/06/28 00:27:08;;;;;;;;;;;15.70;99.90;;;;;;5107538;27;19927;-74
2023/06/28 00:29:33;;;;;;;;;;;15.80;99.90;;;;;;5104857;27;19920;-74
2023/06/28 00:31:59;;;;;;;;;;;15.80;99.90;;;;;;5105974;28;19983;-74
2023/06/28 00:34:24;;;;;;;;;;;15.80;99.90;;;;;;5108988;27;19927;-74
2023/06/28 00:36:50;;;;;;;;;;;15.80;99.90;;;;;;5108299;28;19928;-74
2023/06/28 00:39:15;;;;;;;;;;;15.80;99.90;;;;;;5107882;27;20008;-74
2023/06/28 00:41:41;;;;;;;;;;;15.60;99.90;;;;;;5118177;28;19923;-74
2023/06/28 00:44:06;;;;;;;;;;;15.70;99.90;;;;;;5121257;27;19965;-73
2023/06/28 00:46:33;;;;;;;;;;;15.70;99.90;;;;;;5112664;27;19924;-73
2023/06/28 00:48:59;;;;;;;;;;;15.70;99.90;;;;;;5109715;28;19967;-74
2023/06/28 00:51:26;;;;;;;;;;;15.70;99.90;;;;;;5104275;28;19989;-74
2023/06/28 00:53:52;;;;;;;;;;;15.80;99.90;;;;;;5093323;28;19966;-74
2023/06/28 00:56:18;;;;;;;;;;;15.70;99.90;;;;;;5132791;28;20280;-74
2023/06/28 00:58:44;;;;;;;;;;;15.70;99.90;;;;;;5113309;28;19920;-74
2023/06/28 01:01:10;;;;;;;;;;;15.70;99.90;;;;;;5113089;28;20389;-74
2023/06/28 01:03:36;;;;;;;;;;;15.70;99.90;;;;;;5112001;28;20300;-74
2023/06/28 01:06:01;;;;;;;;;;;15.70;99.90;;;;;;5121202;28;19919;-74
2023/06/28 01:08:27;;;;;;;;;;;15.70;99.90;;;;;;5106107;28;20013;-75
2023/06/28 01:10:53;;;;;;;;;;;15.70;99.90;;;;;;5110050;28;19920;-74
2023/06/28 01:13:19;;;;;;;;;;;15.70;99.90;;;;;;5104325;28;20399;-75
2023/06/28 01:15:45;;;;;;;;;;;15.60;99.90;;;;;;5109591;28;20003;-74
2023/06/28 01:18:11;;;;;;;;;;;15.70;99.90;;;;;;5098892;28;19979;-74
2023/06/28 01:20:37;;;;;;;;;;;15.70;99.90;;;;;;5090602;28;19962;-74
2023/06/28 01:23:03;;;;;;;;;;;15.70;99.90;;;;;;5114185;28;20335;-74
2023/06/28 01:25:29;;;;;;;;;;;15.70;99.90;;;;;;5112581;28;19926;-74
2023/06/28 01:27:55;;;;;;;;;;;15.70;99.90;;;;;;5114771;28;19920;-74
2023/06/28 01:30:23;;;;;;;;;;;15.80;99.90;;;;;;5109501;28;20445;-75
2023/06/28 01:32:49;;;;;;;;;;;15.60;99.90;;;;;;5116263;28;19923;-74
2023/06/28 01:35:14;;;;;;;;;;;15.60;99.90;;;;;;5103765;28;19926;-75
2023/06/28 01:37:41;;;;;;;;;;;15.60;99.90;;;;;;5116169;28;19920;-74
2023/06/28 01:40:07;;;;;;;;;;;15.60;99.90;;;;;;5115599;28;19903;-74
2023/06/28 01:42:34;;;;;;;;;;;15.60;99.90;;;;;;5120482;28;19926;-74
2023/06/28 01:44:59;;;;;;;;;;;15.60;99.90;;;;;;5123050;27;19993;-73
2023/06/28 01:47:25;;;;;;;;;;;15.60;99.90;;;;;;5122201;27;20343;-74
2023/06/28 01:49:51;;;;;;;;;;;15.60;99.90;;;;;;5119394;28;19929;-74
2023/06/28 01:52:16;;;;;;;;;;;15.60;99.90;;;;;;5120416;28;19920;-74
2023/06/28 01:54:42;;;;;;;;;;;15.60;99.90;;;;;;5121651;28;20310;-74
2023/06/28 01:57:08;;;;;;;;;;;15.60;99.90;;;;;;5109739;28;20369;-74
2023/06/28 01:59:33;;;;;;;;;;;15.60;99.90;;;;;;5112263;28;19927;-74
2023/06/28 02:01:59;;;;;;;;;;;15.60;99.90;;;;;;5133999;27;19940;-74
2023/06/28 02:04:25;;;;;;;;;;;15.60;99.90;;;;;;5128490;27;19927;-74
2023/06/28 02:06:50;;;;;;;;;;;15.60;99.90;;;;;;5102188;28;19920;-74
2023/06/28 02:09:16;;;;;;;;;;;15.50;99.90;;;;;;5118300;27;19959;-75
2023/06/28 02:11:41;;;;;;;;;;;15.50;99.90;;;;;;5121226;27;19920;-74
2023/06/28 02:14:07;;;;;;;;;;;15.50;99.90;;;;;;5115511;28;20359;-74
2023/06/28 02:16:32;;;;;;;;;;;15.50;99.90;;;;;;5112916;28;19920;-74
2023/06/28 02:19:00;;;;;;;;;;;15.50;99.90;;;;;;5103908;27;19919;-74
2023/06/28 02:21:26;;;;;;;;;;;15.40;99.90;;;;;;5108141;28;20018;-74
2023/06/28 02:23:51;;;;;;;;;;;15.50;99.90;;;;;;5120689;28;19981;-74
2023/06/28 02:26:17;;;;;;;;;;;15.40;99.90;;;;;;5127561;28;19919;-74
2023/06/28 02:28:42;;;;;;;;;;;15.50;99.90;;;;;;5115668;28;19916;-74
2023/06/28 02:31:08;;;;;;;;;;;15.50;99.90;;;;;;5109677;28;19970;-74
2023/06/28 02:33:33;;;;;;;;;;;15.50;99.90;;;;;;5117098;27;20319;-74
2023/06/28 02:35:59;;;;;;;;;;;15.50;99.90;;;;;;5127876;27;19925;-74
2023/06/28 02:38:24;;;;;;;;;;;15.50;99.90;;;;;;5099327;27;20294;-74
2023/06/28 02:40:50;;;;;;;;;;;15.50;99.90;;;;;;5113977;27;20373;-75
2023/06/28 02:43:18;;;;;;;;;;;15.50;99.90;;;;;;5106415;28;19920;-75
2023/06/28 02:45:47;;;;;;;;;;;15.50;99.90;;;;;;5110919;28;19973;-75
2023/06/28 02:48:13;;;;;;;;;;;15.60;99.90;;;;;;5099586;28;19920;-74
2023/06/28 02:50:38;;;;;;;;;;;15.60;99.90;;;;;;5085841;28;19976;-75
2023/06/28 02:53:04;;;;;;;;;;;15.60;99.90;;;;;;5099445;27;19919;-74
2023/06/28 02:55:29;;;;;;;;;;;15.60;99.90;;;;;;5133350;27;19968;-74
2023/06/28 02:57:55;;;;;;;;;;;15.50;99.90;;;;;;5111586;27;19927;-75
2023/06/28 03:00:20;;;;;;;;;;;15.60;99.90;;;;;;5091840;28;19924;-75
2023/06/28 03:02:46;;;;;;;;;;;15.70;99.90;;;;;;5119477;28;19926;-75
2023/06/28 03:05:11;;;;;;;;;;;15.60;99.90;;;;;;5093315;28;19923;-75
2023/06/28 03:07:37;;;;;;;;;;;15.60;99.90;;;;;;5102762;28;19924;-75
2023/06/28 03:10:02;;;;;;;;;;;15.60;99.90;;;;;;5109988;27;19967;-73
2023/06/28 03:12:29;;;;;;;;;;;15.60;99.90;;;;;;5092989;28;20392;-74
2023/06/28 03:14:56;;;;;;;;;;;15.60;99.90;;;;;;5117745;28;19919;-75
2023/06/28 03:17:21;;;;;;;;;;;15.60;99.90;;;;;;5103313;28;19969;-75
2023/06/28 03:19:49;;;;;;;;;;;15.60;99.90;;;;;;5114481;28;19920;-75
2023/06/28 03:22:15;;;;;;;;;;;15.60;99.90;;;;;;5109225;28;19927;-74
2023/06/28 03:24:40;;;;;;;;;;;15.60;99.90;;;;;;5114106;28;19920;-75
2023/06/28 03:27:07;;;;;;;;;;;15.80;99.90;;;;;;5120351;27;19947;-74
2023/06/28 03:29:33;;;;;;;;;;;15.60;99.90;;;;;;5122888;27;19919;-74
2023/06/28 03:31:58;;;;;;;;;;;15.60;99.90;;;;;;5100892;28;19967;-74
2023/06/28 03:34:24;;;;;;;;;;;15.70;99.90;;;;;;5067656;28;19919;-74
2023/06/28 03:36:50;;;;;;;;;;;15.80;99.90;;;;;;5111348;28;19920;-75
2023/06/28 03:39:15;;;;;;;;;;;15.70;99.90;;;;;;5101349;28;19920;-74
2023/06/28 03:41:41;;;;;;;;;;;15.70;99.90;;;;;;5105380;28;19924;-75
2023/06/28 03:44:06;;;;;;;;;;;15.70;99.90;;;;;;5109302;28;19966;-74
2023/06/28 03:46:32;;;;;;;;;;;15.70;99.90;;;;;;5113295;28;19977;-74
2023/06/28 03:49:00;;;;;;;;;;;15.70;99.90;;;;;;5100210;28;19920;-75
2023/06/28 03:51:26;;;;;;;;;;;15.70;99.90;;;;;;5112774;28;19924;-75
2023/06/28 03:53:51;;;;;;;;;;;15.70;99.90;;;;;;5092398;28;19920;-75
2023/06/28 03:56:17;;;;;;;;;;;15.70;99.90;;;;;;5106821;28;19920;-76
2023/06/28 03:58:42;;;;;;;;;;;15.70;99.90;;;;;;5092043;28;19915;-73
2023/06/28 04:01:08;;;;;;;;;;;15.60;99.90;;;;;;5110589;27;19920;-75
2023/06/28 04:03:33;;;;;;;;;;;15.60;99.90;;;;;;5118930;28;20003;-76
2023/06/28 04:05:59;;;;;;;;;;;16.40;99.90;;;;;;5124071;27;19970;-75
2023/06/28 04:08:26;;;;;;;;;;;15.60;99.90;;;;;;5115557;28;19927;-75
2023/06/28 04:10:53;;;;;;;;;;;15.60;99.90;;;;;;5129321;27;19923;-74
2023/06/28 04:13:18;;;;;;;;;;;15.60;99.90;;;;;;5091215;28;19911;-74
2023/06/28 04:15:44;;;;;;;;;;;15.60;99.90;;;;;;5095344;28;20271;-74
2023/06/28 04:18:09;;;;;;;;;;;15.60;99.90;;;;;;5111289;27;19939;-74
2023/06/28 04:20:35;;;;;;;;;;;15.60;99.90;;;;;;5115050;28;20289;-75
2023/06/28 04:23:00;;;;;;;;;;;15.60;99.90;;;;;;5115483;28;19904;-75
2023/06/28 04:25:26;;;;;;;;;;;15.90;99.90;;;;;;5116524;28;19927;-74
2023/06/28 04:27:51;;;;;;;;;;;15.60;99.90;;;;;;5110417;28;19947;-76
2023/06/28 04:30:17;;;;;;;;;;;15.60;99.90;;;;;;5100310;28;19966;-76
2023/06/28 04:32:44;;;;;;;;;;;15.60;99.90;;;;;;5112146;28;19926;-75
2023/06/28 04:35:10;;;;;;;;;;;15.60;99.90;;;;;;5105266;27;19919;-76
2023/06/28 04:37:38;;;;;;;;;;;15.60;99.90;;;;;;5091505;28;19919;-75
2023/06/28 04:40:04;;;;;;;;;;;15.60;99.90;;;;;;5076687;28;19963;-75
2023/06/28 04:42:30;;;;;;;;;;;15.60;99.90;;;;;;5089875;28;19923;-75
2023/06/28 04:44:59;;;;;;;;;;;15.60;99.90;;;;;;5104257;28;19982;-75
2023/06/28 04:47:26;;;;;;;;;;;15.60;99.90;;;;;;5112583;28;19920;-75
2023/06/28 04:49:52;;;;;;;;;;;15.60;99.90;;;;;;5090702;28;19923;-75
2023/06/28 04:52:22;;;;;;;;;;;15.60;99.90;;;;;;5097216;28;20369;-74
2023/06/28 04:54:48;;;;;;;;;;;15.60;99.90;;;;;;5101192;28;19916;-75
2023/06/28 04:57:15;;;;;;;;;;;15.60;99.90;;;;;;5111369;28;19950;-75
2023/06/28 04:59:41;;;;;;;;;;;15.60;99.90;;;;;;5110062;28;20002;-75
2023/06/28 05:02:06;;;;;;;;;;;15.60;99.90;;;;;;5106864;28;19954;-74
2023/06/28 05:04:32;;;;;;;;;;;15.60;99.90;;;;;;5113466;28;19964;-75
2023/06/28 05:07:03;;;;;;;;;;;15.90;99.90;;;;;;5117897;28;19923;-75
2023/06/28 05:09:28;;;;;;;;;;;15.60;99.90;;;;;;5104953;28;20286;-74
2023/06/28 05:11:54;;;;;;;;;;;15.70;99.90;;;;;;5113039;28;19927;-75
2023/06/28 05:14:19;;;;;;;;;;;15.60;99.90;;;;;;5106036;28;20028;-75
2023/06/28 05:16:45;;;;;;;;;;;15.70;99.90;;;;;;5109192;27;19971;-75
2023/06/28 05:19:10;;;;;;;;;;;15.70;99.90;;;;;;5091038;27;19919;-74
2023/06/28 05:21:36;;;;;;;;;;;15.70;99.90;;;;;;5114127;28;19920;-75
2023/06/28 05:24:02;;;;;;;;;;;15.70;99.90;;;;;;5112953;28;19927;-74
2023/06/28 05:26:29;;;;;;;;;;;15.70;99.90;;;;;;5107742;27;19920;-75
2023/06/28 05:28:55;;;;;;;;;;;15.80;99.90;;;;;;5109558;28;19920;-75
2023/06/28 05:31:21;;;;;;;;;;;15.70;99.90;;;;;;5109736;27;19920;-76
2023/06/28 05:33:46;;;;;;;;;;;15.80;99.90;;;;;;5124143;27;19920;-75
2023/06/28 05:36:12;;;;;;;;;;;15.70;99.90;;;;;;5113508;27;20340;-76
2023/06/28 05:38:37;;;;;;;;;;;15.80;99.90;;;;;;5095747;28;19920;-75
2023/06/28 05:41:10;;;;;;;;;;;15.80;99.90;;;;;;5099423;28;19941;-74
2023/06/28 05:43:36;;;;;;;;;;;15.80;99.90;;;;;;5112660;27;19927;-75
2023/06/28 05:46:04;;;;;;;;;;;15.80;99.90;;;;;;5090870;27;19970;-75
2023/06/28 05:48:31;;;;;;;;;;;15.90;99.90;;;;;;5104192;28;19923;-74
2023/06/28 05:50:56;;;;;;;;;;;15.90;99.90;;;;;;5108980;28;19927;-74
2023/06/28 05:53:22;;;;;;;;;;;15.90;99.90;;;;;;5115837;27;19920;-74
2023/06/28 05:55:47;;;;;;;;;;;16.00;99.90;;;;;;5084869;28;20343;-75
2023/06/28 05:58:13;;;;;;;;;;;16.00;99.90;;;;;;5067565;28;20305;-75
2023/06/28 06:00:38;;;;;;;;;;;16.10;99.90;;;;;;5071186;28;19904;-76
2023/06/28 06:03:04;;;;;;;;;;;16.10;99.90;;;;;;5070834;28;20275;-76
2023/06/28 06:05:29;;;;;;;;;;;16.20;99.90;;;;;;5072664;28;19973;-75
2023/06/28 06:07:55;;;;;;;;;;;16.20;99.90;;;;;;5070520;28;19928;-75
2023/06/28 06:10:20;;;;;;;;;;;16.20;99.90;;;;;;5107813;28;20016;-76
2023/06/28 06:12:47;;;;;;;;;;;16.20;99.90;;;;;;5075784;28;20393;-75
2023/06/28 06:15:12;;;;;;;;;;;16.30;99.90;;;;;;5080303;28;19927;-75
2023/06/28 06:17:38;;;;;;;;;;;16.30;99.90;;;;;;5070750;28;19988;-74
2023/06/28 06:20:04;;;;;;;;;;;16.30;99.90;;;;;;5079959;28;19931;-75
2023/06/28 06:22:30;;;;;;;;;;;16.40;99.90;;;;;;5071939;28;19999;-75
2023/06/28 06:24:58;;;;;;;;;;;16.40;99.90;;;;;;5067839;28;19920;-76
2023/06/28 06:27:24;;;;;;;;;;;16.40;99.90;;;;;;5060078;28;19920;-75
2023/06/28 06:29:49;;;;;;;;;;;16.40;99.90;;;;;;5062373;28;19989;-76
2023/06/28 06:32:15;;;;;;;;;;;16.50;99.90;;;;;;5079438;28;19920;-76
2023/06/28 06:34:41;;;;;;;;;;;16.50;99.90;;;;;;5071670;28;19940;-75
2023/06/28 06:37:11;;;;;;;;;;;16.50;99.90;;;;;;5063688;28;19921;-76
2023/06/28 06:39:42;;;;;;;;;;;16.50;99.90;;;;;;5065965;28;19928;-75
2023/06/28 06:42:07;;;;;;;;;;;16.50;99.90;;;;;;5069994;28;21274;-75
2023/06/28 06:44:33;;;;;;;;;;;16.50;99.90;;;;;;5064739;28;19931;-75
2023/06/28 06:46:59;;;;;;;;;;;16.50;99.90;;;;;;5066929;28;19920;-74
2023/06/28 06:49:24;;;;;;;;;;;16.60;99.90;;;;;;5064649;28;19920;-75
2023/06/28 06:51:53;;;;;;;;;;;16.50;99.90;;;;;;5077102;28;19928;-75
2023/06/28 06:54:19;;;;;;;;;;;16.50;99.90;;;;;;5077159;28;19974;-75
2023/06/28 06:56:44;;;;;;;;;;;16.50;99.90;;;;;;5096347;28;19928;-75
2023/06/28 06:59:10;;;;;;;;;;;16.50;99.90;;;;;;5099589;28;20442;-76
2023/06/28 07:01:35;;;;;;;;;;;16.50;99.90;;;;;;5098789;28;19954;-75
2023/06/28 07:04:04;;;;;;;;;;;16.40;99.90;;;;;;5088325;27;19920;-74
2023/06/28 07:06:29;;;;;;;;;;;16.40;99.90;;;;;;5119370;27;19973;-75
2023/06/28 07:08:57;;;;;;;;;;;16.40;99.90;;;;;;5123035;27;19919;-75
2023/06/28 07:11:23;;;;;;;;;;;16.40;99.90;;;;;;5119408;27;19920;-76
2023/06/28 07:13:48;;;;;;;;;;;16.30;99.90;;;;;;5116451;27;20297;-76
2023/06/28 07:16:14;;;;;;;;;;;16.20;99.90;;;;;;5114165;28;19960;-78
2023/06/28 07:18:40;;;;;;;;;;;16.20;99.90;;;;;;5096639;28;19920;-77
2023/06/28 07:21:05;;;;;;;;;;;16.20;99.90;;;;;;5099245;28;19920;-77
2023/06/28 07:23:31;;;;;;;;;;;16.20;99.90;;;;;;5105524;28;19934;-77
2023/06/28 07:25:56;;;;;;;;;;;16.20;99.90;;;;;;5093517;28;19907;-77
2023/06/28 07:28:22;;;;;;;;;;;16.20;99.90;;;;;;5120876;28;20305;-76
2023/06/28 07:30:53;;;;;;;;;;;16.30;99.90;;;;;;5132930;27;19921;-77
2023/06/28 07:33:20;;;;;;;;;;;16.30;99.90;;;;;;5099265;28;19998;-76
2023/06/28 07:35:45;;;;;;;;;;;16.30;99.90;;;;;;5098020;28;19939;-77
2023/06/28 07:38:11;;;;;;;;;;;16.40;99.90;;;;;;5101176;28;19930;-77
2023/06/28 07:40:36;;;;;;;;;;;16.40;99.90;;;;;;5086079;28;19920;-76
2023/06/28 07:43:02;;;;;;;;;;;16.50;99.90;;;;;;5106924;27;20376;-75
2023/06/28 07:45:28;;;;;;;;;;;16.40;99.90;;;;;;5115410;28;19925;-76
2023/06/28 07:47:54;;;;;;;;;;;16.50;99.90;;;;;;5108737;28;20018;-77
2023/06/28 07:50:20;;;;;;;;;;;16.40;99.90;;;;;;5116783;28;19924;-76
2023/06/28 07:52:46;;;;;;;;;;;16.50;99.90;;;;;;5100967;28;19994;-77
2023/06/28 07:55:13;;;;;;;;;;;16.50;99.90;;;;;;5117707;28;19986;-75
2023/06/28 07:57:38;;;;;;;;;;;16.50;99.90;;;;;;5083880;28;19926;-76
2023/06/28 08:00:04;;;;;;;;;;;16.60;99.90;;;;;;5113312;27;20006;-77
2023/06/28 08:02:30;;;;;;;;;;;16.60;99.90;;;;;;5116555;27;19927;-75
2023/06/28 08:04:58;;;;;;;;;;;16.60;99.90;;;;;;5101625;27;20270;-77
2023/06/28 08:07:24;;;;;;;;;;;16.70;99.90;;;;;;5107067;27;19919;-75
2023/06/28 08:09:49;;;;;;;;;;;16.70;99.90;;;;;;5103261;28;20262;-75
2023/06/28 08:12:15;;;;;;;;;;;16.70;99.90;;;;;;5105409;27;19924;-76
2023/06/28 08:14:40;;;;;;;;;;;16.70;99.90;;;;;;5099320;28;19927;-76
2023/06/28 08:17:06;;;;;;;;;;;16.70;99.90;;;;;;5091517;28;19920;-76
2023/06/28 08:19:33;;;;;;;;;;;16.70;99.90;;;;;;5115818;28;19930;-74
2023/06/28 08:21:58;;;;;;;;;;;16.70;99.90;;;;;;5095484;27;19919;-74
2023/06/28 08:24:24;;;;;;;;;;;16.70;99.90;;;;;;5126902;27;20031;-76
2023/06/28 08:26:49;;;;;;;;;;;16.70;99.90;;;;;;5110792;28;19926;-75
2023/06/28 08:29:16;;;;;;;;;;;16.70;99.90;;;;;;5108569;28;19926;-74
2023/06/28 08:31:42;;;;;;;;;;;16.80;99.90;;;;;;5113130;27;19972;-75
2023/06/28 08:34:08;;;;;;;;;;;16.80;99.90;;;;;;5107969;28;19920;-76
2023/06/28 08:36:36;;;;;;;;;;;16.80;99.90;;;;;;5119148;27;20060;-75
2023/06/28 08:39:02;;;;;;;;;;;16.90;99.90;;;;;;5118359;27;19972;-75
2023/06/28 08:41:28;;;;;;;;;;;16.90;99.90;;;;;;5098446;28;19955;-76
2023/06/28 08:43:55;;;;;;;;;;;17.00;99.90;;;;;;5118060;27;19927;-75
2023/06/28 08:46:21;;;;;;;;;;;17.00;99.90;;;;;;5105071;28;20022;-75
2023/06/28 08:48:48;;;;;;;;;;;17.10;99.90;;;;;;5072262;28;20448;-76
2023/06/28 08:51:17;;;;;;;;;;;17.10;99.90;;;;;;5112587;28;19959;-75
2023/06/28 08:53:45;;;;;;;;;;;17.10;99.90;;;;;;5096581;28;19919;-74
2023/06/28 08:56:11;;;;;;;;;;;17.20;99.90;;;;;;5127495;27;19927;-74
2023/06/28 08:58:37;;;;;;;;;;;17.20;99.90;;;;;;5105692;28;19919;-75
2023/06/28 09:01:03;;;;;;;;;;;17.20;99.90;;;;;;5107387;28;19920;-76
2023/06/28 09:03:30;;;;;;;;;;;17.20;99.90;;;;;;5092860;28;19919;-74
2023/06/28 09:05:55;;;;;;;;;;;17.10;99.90;;;;;;5114256;28;19930;-75
2023/06/28 09:08:21;;;;;;;;;;;17.20;99.90;;;;;;5117752;27;19924;-74
2023/06/28 09:10:47;;;;;;;;;;;17.10;99.90;;;;;;5106810;28;20332;-74
2023/06/28 09:13:19;;;;;;;;;;;17.10;99.90;;;;;;5129763;28;19934;-74
2023/06/28 09:15:48;;;;;;;;;;;17.10;99.90;;;;;;5117001;28;19919;-74
2023/06/28 09:18:15;;;;;;;;;;;17.00;99.90;;;;;;5115319;28;19919;-75
2023/06/28 09:20:47;;;;;;;;;;;17.00;99.90;;;;;;5082550;28;20292;-75
2023/06/28 09:23:13;;;;;;;;;;;17.00;99.90;;;;;;5100161;28;20015;-74
2023/06/28 09:25:41;;;;;;;;;;;17.00;99.90;;;;;;5105305;28;19963;-74
2023/06/28 09:28:08;;;;;;;;;;;17.00;99.90;;;;;;5110656;28;19954;-74
2023/06/28 09:30:35;;;;;;;;;;;17.00;99.90;;;;;;5106581;28;20365;-74
2023/06/28 09:33:03;;;;;;;;;;;17.00;99.90;;;;;;5115318;28;19920;-74
2023/06/28 09:35:29;;;;;;;;;;;17.00;99.90;;;;;;5109679;28;20003;-74
2023/06/28 09:37:57;;;;;;;;;;;17.00;99.90;;;;;;5130179;28;20011;-74
2023/06/28 09:40:22;;;;;;;;;;;17.00;99.90;;;;;;5092500;28;19943;-75
2023/06/28 09:42:48;;;;;;;;;;;17.00;99.90;;;;;;5116339;28;20365;-74
2023/06/28 09:45:27;;;;;;;;;;;16.90;99.90;;;;;;5102482;28;19920;-73
2023/06/28 09:47:57;;;;;;;;;;;17.00;99.90;;;;;;5114312;28;19927;-73
2023/06/28 09:50:33;;;;;;;;;;;17.00;99.90;;;;;;5096334;28;19928;-74
2023/06/28 09:52:58;;;;;;;;;;;17.50;99.90;;;;;;5105891;28;19973;-77
2023/06/28 09:55:25;;;;;;;;;;;17.00;99.90;;;;;;5105629;28;20347;-76
2023/06/28 09:57:50;;;;;;;;;;;17.00;99.90;;;;;;5113806;28;19927;-76
2023/06/28 10:00:16;;;;;;;;;;;17.00;99.90;;;;;;5111671;28;19923;-75
2023/06/28 10:02:42;;;;;;;;;;;17.10;99.90;;;;;;5120335;28;20278;-76
2023/06/28 10:05:09;;;;;;;;;;;17.10;99.90;;;;;;5116223;27;19919;-76
2023/06/28 10:07:35;;;;;;;;;;;17.20;99.90;;;;;;5102093;27;19944;-77
2023/06/28 10:10:01;;;;;;;;;;;17.10;99.90;;;;;;5113052;27;19923;-76
2023/06/28 10:12:28;;;;;;;;;;;17.20;99.90;;;;;;5108999;27;19978;-77
2023/06/28 10:14:54;;;;;;;;;;;17.20;99.90;;;;;;5099711;28;19945;-76
2023/06/28 10:17:20;;;;;;;;;;;17.20;99.90;;;;;;5102224;27;19920;-77
2023/06/28 10:19:46;;;;;;;;;;;17.20;99.90;;;;;;5102088;28;19954;-75
2023/06/28 10:22:13;;;;;;;;;;;17.20;99.90;;;;;;5116923;27;20288;-77
2023/06/28 10:24:39;;;;;;;;;;;17.20;99.90;;;;;;5107166;27;19924;-76
2023/06/28 10:27:05;;;;;;;;;;;17.20;99.90;;;;;;5095515;28;19920;-78
2023/06/28 10:29:31;;;;;;;;;;;17.20;99.90;;;;;;5127954;27;19972;-76
2023/06/28 10:31:56;;;;;;;;;;;17.20;99.90;;;;;;5122761;27;21065;-77
2023/06/28 10:34:22;;;;;;;;;;;17.20;99.90;;;;;;5100611;28;19927;-76
2023/06/28 10:36:48;;;;;;;;;;;17.20;99.90;;;;;;5088404;28;19920;-77
2023/06/28 10:39:15;;;;;;;;;;;17.20;99.90;;;;;;5112093;27;19920;-77
2023/06/28 10:41:41;;;;;;;;;;;17.10;99.90;;;;;;5101420;27;19973;-77
2023/06/28 10:44:07;;;;;;;;;;;17.10;99.90;;;;;;5099219;27;19930;-77
2023/06/28 10:46:33;;;;;;;;;;;17.20;99.90;;;;;;5126505;27;20009;-77
2023/06/28 10:49:03;;;;;;;;;;;17.20;99.90;;;;;;5114792;27;19924;-76
2023/06/28 10:51:33;;;;;;;;;;;17.30;99.90;;;;;;5096350;28;19927;-76
2023/06/28 10:54:09;;;;;;;;;;;17.30;99.90;;;;;;5091146;28;20372;-77
2023/06/28 10:56:50;;;;;;;;;;;17.30;99.90;;;;;;5104361;28;19920;-77
2023/06/28 10:59:16;;;;;;;;;;;17.30;99.90;;;;;;5106095;28;20373;-76
2023/06/28 11:01:48;;;;;;;;;;;17.30;99.90;;;;;;5093904;27;19976;-75
2023/06/28 11:04:25;;;;;;;;;;;17.30;99.90;;;;;;5116694;27;20006;-76
2023/06/28 11:07:09;;;;;;;;;;;17.30;99.90;;;;;;5107142;28;19965;-77
2023/06/28 11:09:35;;;;;;;;;;;17.30;99.90;;;;;;5091217;27;20017;-77
2023/06/28 11:12:00;;;;;;;;;;;17.20;99.90;;;;;;5109944;28;19920;-77
2023/06/28 11:14:33;;;;;;;;;;;17.30;99.90;;;;;;5106406;27;19924;-77
2023/06/28 11:17:01;;;;;;;;;;;17.30;99.90;;;;;;5102405;28;19974;-77
2023/06/28 11:19:27;;;;;;;;;;;17.20;99.90;;;;;;5104774;28;20323;-76
2023/06/28 11:21:57;;;;;;;;;;;17.30;99.90;;;;;;5112233;28;20376;-77
2023/06/28 11:24:25;;;;;;;;;;;17.30;99.90;;;;;;5110642;27;19955;-77
2023/06/28 11:26:51;;;;;;;;;;;17.30;99.90;;;;;;5107282;27;20431;-76
2023/06/28 11:29:18;;;;;;;;;;;17.30;99.90;;;;;;5119639;27;19960;-77
2023/06/28 11:31:47;;;;;;;;;;;17.30;99.90;;;;;;5091753;28;19927;-77
2023/06/28 11:34:13;;;;;;;;;;;17.30;99.90;;;;;;5128202;27;19927;-77
2023/06/28 11:36:39;;;;;;;;;;;17.30;99.90;;;;;;5112544;27;19927;-76
2023/06/28 11:39:06;;;;;;;;;;;17.30;99.90;;;;;;5095934;28;20352;-76
2023/06/28 11:41:35;;;;;;;;;;;17.30;99.90;;;;;;5108249;27;20378;-77
2023/06/28 11:44:03;;;;;;;;;;;17.30;99.90;;;;;;5098401;27;19920;-77
2023/06/28 11:46:29;;;;;;;;;;;17.20;99.90;;;;;;5108284;27;19971;-78
2023/06/28 11:48:56;;;;;;;;;;;17.20;99.90;;;;;;5128337;27;20350;-77
2023/06/28 11:51:23;;;;;;;;;;;17.20;99.90;;;;;;5090179;27;19927;-77
2023/06/28 11:53:51;;;;;;;;;;;17.20;99.90;;;;;;5107199;28;20399;-76
2023/06/28 11:56:20;;;;;;;;;;;17.20;99.90;;;;;;5085098;28;20369;-77
2023/06/28 11:58:46;;;;;;;;;;;17.20;99.90;;;;;;5097631;27;19973;-77
2023/06/28 12:01:21;;;;;;;;;;;17.20;99.90;;;;;;5092425;27;19919;-77
2023/06/28 12:03:47;;;;;;;;;;;17.20;99.90;;;;;;5101958;28;19920;-77
2023/06/28 12:06:12;;;;;;;;;;;17.30;99.90;;;;;;5113412;28;20338;-77
2023/06/28 12:08:39;;;;;;;;;;;17.30;99.90;;;;;;5065159;28;19926;-77
2023/06/28 12:11:08;;;;;;;;;;;17.20;99.90;;;;;;5111283;27;19974;-77
2023/06/28 12:13:34;;;;;;;;;;;17.30;99.90;;;;;;5084571;28;20396;-78
2023/06/28 12:16:10;;;;;;;;;;;17.30;99.90;;;;;;5088496;28;19924;-78
2023/06/28 12:18:56;;;;;;;;;;;17.40;99.90;;;;;;5071712;27;19973;-78
2023/06/28 12:21:22;;;;;;;;;;;17.40;99.90;;;;;;5104092;27;19927;-78
2023/06/28 12:23:48;;;;;;;;;;;17.50;99.90;;;;;;5111316;27;20423;-76
2023/06/28 12:26:14;;;;;;;;;;;17.50;99.90;;;;;;5105098;27;20276;-77
2023/06/28 12:28:39;;;;;;;;;;;17.50;99.90;;;;;;5112537;27;19919;-77
2023/06/28 12:31:05;;;;;;;;;;;17.50;99.90;;;;;;5107809;27;19920;-77
2023/06/28 12:33:34;;;;;;;;;;;17.60;99.90;;;;;;5111229;27;19926;-76
2023/06/28 12:36:00;;;;;;;;;;;17.60;99.90;;;;;;5118506;27;20035;-77
2023/06/28 12:38:25;;;;;;;;;;;17.70;99.90;;;;;;5101034;28;20459;-76
2023/06/28 12:40:51;;;;;;;;;;;17.70;99.90;;;;;;5085213;28;19931;-76
2023/06/28 12:43:21;;;;;;;;;;;17.70;99.90;;;;;;5108686;28;19938;-77
2023/06/28 12:45:54;;;;;;;;;;;17.70;99.90;;;;;;5089448;28;19955;-76
2023/06/28 12:48:21;;;;;;;;;;;17.70;99.90;;;;;;5107267;28;19920;-77
2023/06/28 12:50:47;;;;;;;;;;;17.70;99.90;;;;;;5085642;28;19926;-77
2023/06/28 12:53:13;;;;;;;;;;;17.80;99.90;;;;;;5101449;28;19967;-76
2023/06/28 12:55:39;;;;;;;;;;;17.80;99.90;;;;;;5109943;28;19919;-76
2023/06/28 12:58:05;;;;;;;;;;;17.80;99.90;;;;;;5096297;28;19923;-76
2023/06/28 13:00:32;;;;;;;;;;;17.90;99.90;;;;;;5095381;28;19950;-76
2023/06/28 13:02:58;;;;;;;;;;;17.90;99.90;;;;;;5102187;28;20369;-77
2023/06/28 13:05:23;;;;;;;;;;;18.00;99.90;;;;;;5089851;28;20272;-77
2023/06/28 13:07:49;;;;;;;;;;;17.90;99.90;;;;;;5106986;28;20373;-77
2023/06/28 13:10:14;;;;;;;;;;;18.00;99.90;;;;;;5104257;28;19920;-77
2023/06/28 13:12:40;;;;;;;;;;;18.00;99.90;;;;;;5110407;28;20397;-76
2023/06/28 13:15:06;;;;;;;;;;;18.10;99.90;;;;;;5114352;28;20019;-75
2023/06/28 13:17:32;;;;;;;;;;;18.00;99.90;;;;;;5103263;28;19967;-76
2023/06/28 13:19:57;;;;;;;;;;;18.10;99.90;;;;;;5078643;28;20270;-76
2023/06/28 13:22:23;;;;;;;;;;;18.10;99.90;;;;;;5096700;28;19920;-76
2023/06/28 13:24:48;;;;;;;;;;;18.10;99.90;;;;;;5097076;28;19927;-76
2023/06/28 13:27:14;;;;;;;;;;;18.10;99.90;;;;;;5106590;28;19926;-74
2023/06/28 13:29:39;;;;;;;;;;;18.00;99.90;;;;;;5096124;28;19920;-76
2023/06/28 13:32:05;;;;;;;;;;;18.00;99.90;;;;;;5105834;28;20022;-76
2023/06/28 13:34:31;;;;;;;;;;;18.10;99.90;;;;;;5115525;27;20041;-76
2023/06/28 13:36:57;;;;;;;;;;;18.00;99.90;;;;;;5105928;27;19920;-78
2023/06/28 13:39:22;;;;;;;;;;;18.10;99.90;;;;;;5098663;27;19920;-76
2023/06/28 13:41:48;;;;;;;;;;;18.10;99.90;;;;;;5100043;28;19920;-77
2023/06/28 13:44:13;;;;;;;;;;;18.20;99.90;;;;;;5107085;28;19979;-75
2023/06/28 13:46:39;;;;;;;;;;;18.20;99.90;;;;;;5107547;28;20335;-77
2023/06/28 13:49:04;;;;;;;;;;;18.20;99.90;;;;;;5109092;28;19919;-77
2023/06/28 13:51:31;;;;;;;;;;;18.20;99.90;;;;;;5106011;27;20267;-76
2023/06/28 13:53:57;;;;;;;;;;;18.20;99.90;;;;;;5106918;27;20003;-76
2023/06/28 13:56:22;;;;;;;;;;;18.30;99.90;;;;;;5106546;28;19991;-76
2023/06/28 13:58:48;;;;;;;;;;;18.30;99.90;;;;;;5109163;28;19924;-76
2023/06/28 14:01:16;;;;;;;;;;;18.30;99.90;;;;;;5105790;28;19923;-76
2023/06/28 14:03:41;;;;;;;;;;;18.40;99.90;;;;;;5111076;28;19959;-77
2023/06/28 14:06:07;;;;;;;;;;;18.40;99.90;;;;;;5111190;28;19919;-76
2023/06/28 14:08:32;;;;;;;;;;;18.40;99.90;;;;;;5103220;27;19919;-76
2023/06/28 14:10:58;;;;;;;;;;;18.50;99.90;;;;;;5089358;28;19919;-77